sensor_id;sensor_type;location;lat;lon;timestamp;pressure;altitude;pressure_sealevel;temperature;humidity
9538;BME280;4807;48.024;11.726;2022-11-15T00:01:38;94946.75;;;3.22;85.66
9538;BME280;4807;48.024;11.726;2022-11-15T00:05:05;94955.34;;;3.24;85.98
9538;BME280;4807;48.024;11.726;2022-11-15T00:08:33;94948.41;;;3.23;86.10
9538;BME280;4807;48.024;11.726;2022-11-15T00:12:00;94940.97;;;3.19;86.25
9538;BME280;4807;48.024;11.726;2022-11-15T00:15:30;94938.69;;;3.16;85.83
9538;BME280;4807;48.024;11.726;2022-11-15T00:18:57;94930.78;;;3.16;85.00
9538;BME280;4807;48.024;11.726;2022-11-15T00:22:25;94934.50;;;3.05;85.43
9538;BME280;4807;48.024;11.726;2022-11-15T00:25:57;94930.69;;;2.99;85.59
9538;BME280;4807;48.024;11.726;2022-11-15T00:29:25;94922.28;;;2.96;86.20
9538;BME280;4807;48.024;11.726;2022-11-15T00:32:53;94925.53;;;2.90;86.08
9538;BME280;4807;48.024;11.726;2022-11-15T00:36:21;94920.91;;;2.84;85.29
9538;BME280;4807;48.024;11.726;2022-11-15T00:39:48;94923.16;;;2.79;85.84
9538;BME280;4807;48.024;11.726;2022-11-15T00:43:15;94926.09;;;2.76;85.65
9538;BME280;4807;48.024;11.726;2022-11-15T00:46:42;94931.91;;;2.87;85.16
9538;BME280;4807;48.024;11.726;2022-11-15T00:50:12;94926.84;;;2.94;83.61
9538;BME280;4807;48.024;11.726;2022-11-15T00:53:40;94919.78;;;2.68;84.55
9538;BME280;4807;48.024;11.726;2022-11-15T00:57:07;94908.09;;;2.63;85.29
9538;BME280;4807;48.024;11.726;2022-11-15T01:00:34;94909.06;;;2.62;85.03
9538;BME280;4807;48.024;11.726;2022-11-15T01:04:02;94922.28;;;2.52;86.06
9538;BME280;4807;48.024;11.726;2022-11-15T01:07:30;94909.22;;;2.60;85.15
9538;BME280;4807;48.024;11.726;2022-11-15T01:11:01;94914.59;;;2.51;85.99
9538;BME280;4807;48.024;11.726;2022-11-15T01:14:28;94908.13;;;2.45;85.77
9538;BME280;4807;48.024;11.726;2022-11-15T01:17:56;94906.09;;;2.39;86.19
9538;BME280;4807;48.024;11.726;2022-11-15T01:21:23;94895.66;;;2.47;85.73
9538;BME280;4807;48.024;11.726;2022-11-15T01:24:51;94891.38;;;2.46;85.41
9538;BME280;4807;48.024;11.726;2022-11-15T01:28:19;94896.63;;;2.46;85.36
9538;BME280;4807;48.024;11.726;2022-11-15T01:31:46;94885.44;;;2.44;84.96
9538;BME280;4807;48.024;11.726;2022-11-15T01:35:13;94868.69;;;2.45;84.39
9538;BME280;4807;48.024;11.726;2022-11-15T01:38:41;94864.41;;;2.44;84.26
9538;BME280;4807;48.024;11.726;2022-11-15T01:42:13;94862.47;;;2.46;84.81
9538;BME280;4807;48.024;11.726;2022-11-15T01:45:40;94857.97;;;2.39;84.90
9538;BME280;4807;48.024;11.726;2022-11-15T01:49:13;94860.16;;;2.43;84.72
9538;BME280;4807;48.024;11.726;2022-11-15T01:52:41;94855.72;;;2.44;85.09
9538;BME280;4807;48.024;11.726;2022-11-15T01:56:13;94844.69;;;2.40;85.09
9538;BME280;4807;48.024;11.726;2022-11-15T01:59:45;94840.47;;;2.47;84.13
9538;BME280;4807;48.024;11.726;2022-11-15T02:03:13;94841.44;;;2.46;84.15
9538;BME280;4807;48.024;11.726;2022-11-15T02:06:43;94841.91;;;2.42;84.56
9538;BME280;4807;48.024;11.726;2022-11-15T02:10:17;94838.66;;;2.48;84.01
9538;BME280;4807;48.024;11.726;2022-11-15T02:13:45;94833.75;;;2.53;83.37
9538;BME280;4807;48.024;11.726;2022-11-15T02:17:26;94834.19;;;2.40;84.02
9538;BME280;4807;48.024;11.726;2022-11-15T02:21:11;94831.91;;;2.45;83.90
9538;BME280;4807;48.024;11.726;2022-11-15T02:25:07;94820.81;;;2.51;83.62
9538;BME280;4807;48.024;11.726;2022-11-15T02:28:48;94815.59;;;2.59;82.80
9538;BME280;4807;48.024;11.726;2022-11-15T02:32:23;94805.69;;;2.53;84.03
9538;BME280;4807;48.024;11.726;2022-11-15T02:35:59;94797.38;;;2.66;83.78
9538;BME280;4807;48.024;11.726;2022-11-15T02:39:34;94803.97;;;2.70;83.80
9538;BME280;4807;48.024;11.726;2022-11-15T02:47:28;94785.56;;;2.70;82.99
9538;BME280;4807;48.024;11.726;2022-11-15T02:50:57;94783.75;;;2.71;82.80
9538;BME280;4807;48.024;11.726;2022-11-15T02:54:26;94785.72;;;2.68;82.96
9538;BME280;4807;48.024;11.726;2022-11-15T02:58:05;94782.06;;;2.61;83.01
9538;BME280;4807;48.024;11.726;2022-11-15T03:01:45;94780.78;;;2.65;82.23
9538;BME280;4807;48.024;11.726;2022-11-15T03:05:25;94775.81;;;2.54;82.46
9538;BME280;4807;48.024;11.726;2022-11-15T03:09:05;94779.16;;;2.64;81.74
9538;BME280;4807;48.024;11.726;2022-11-15T03:12:38;94782.84;;;2.54;82.17
9538;BME280;4807;48.024;11.726;2022-11-15T03:16:11;94785.22;;;2.65;81.64
9538;BME280;4807;48.024;11.726;2022-11-15T03:19:45;94785.28;;;2.47;82.06
9538;BME280;4807;48.024;11.726;2022-11-15T03:23:15;94783.19;;;2.25;83.16
9538;BME280;4807;48.024;11.726;2022-11-15T03:26:45;94789.47;;;2.32;82.30
9538;BME280;4807;48.024;11.726;2022-11-15T03:30:15;94791.13;;;2.33;82.71
9538;BME280;4807;48.024;11.726;2022-11-15T03:33:43;94783.75;;;2.37;81.62
9538;BME280;4807;48.024;11.726;2022-11-15T03:37:11;94786.25;;;2.20;82.27
9538;BME280;4807;48.024;11.726;2022-11-15T03:40:42;94785.94;;;1.98;83.05
9538;BME280;4807;48.024;11.726;2022-11-15T03:44:16;94781.31;;;1.91;82.73
9538;BME280;4807;48.024;11.726;2022-11-15T03:47:51;94782.41;;;1.89;83.62
9538;BME280;4807;48.024;11.726;2022-11-15T03:51:21;94770.75;;;1.83;83.61
9538;BME280;4807;48.024;11.726;2022-11-15T03:54:49;94769.09;;;1.82;83.73
9538;BME280;4807;48.024;11.726;2022-11-15T03:58:18;94764.38;;;1.68;84.28
9538;BME280;4807;48.024;11.726;2022-11-15T04:01:46;94762.88;;;1.66;84.51
9538;BME280;4807;48.024;11.726;2022-11-15T04:05:13;94761.38;;;1.63;84.18
9538;BME280;4807;48.024;11.726;2022-11-15T04:08:41;94757.50;;;1.67;84.19
9538;BME280;4807;48.024;11.726;2022-11-15T04:12:08;94752.38;;;1.66;83.64
9538;BME280;4807;48.024;11.726;2022-11-15T04:15:37;94752.94;;;1.51;83.39
9538;BME280;4807;48.024;11.726;2022-11-15T04:19:04;94745.06;;;1.51;83.75
9538;BME280;4807;48.024;11.726;2022-11-15T04:22:48;94743.03;;;1.45;83.63
9538;BME280;4807;48.024;11.726;2022-11-15T04:26:35;94735.16;;;1.45;84.12
9538;BME280;4807;48.024;11.726;2022-11-15T04:30:03;94729.75;;;1.47;84.17
9538;BME280;4807;48.024;11.726;2022-11-15T04:33:32;94733.94;;;1.40;83.57
9538;BME280;4807;48.024;11.726;2022-11-15T04:37:00;94721.97;;;1.20;84.55
9538;BME280;4807;48.024;11.726;2022-11-15T04:40:39;94719.78;;;1.33;84.02
9538;BME280;4807;48.024;11.726;2022-11-15T04:44:06;94708.25;;;1.43;83.87
9538;BME280;4807;48.024;11.726;2022-11-15T04:47:33;94709.16;;;1.34;83.53
9538;BME280;4807;48.024;11.726;2022-11-15T04:51:02;94708.63;;;1.31;83.90
9538;BME280;4807;48.024;11.726;2022-11-15T04:54:30;94713.16;;;1.21;84.11
9538;BME280;4807;48.024;11.726;2022-11-15T04:58:01;94711.50;;;1.20;84.43
9538;BME280;4807;48.024;11.726;2022-11-15T05:01:28;94709.38;;;1.41;82.72
9538;BME280;4807;48.024;11.726;2022-11-15T05:04:55;94716.13;;;1.26;83.32
9538;BME280;4807;48.024;11.726;2022-11-15T05:08:23;94708.88;;;1.20;83.42
9538;BME280;4807;48.024;11.726;2022-11-15T05:11:50;94709.97;;;1.17;84.12
9538;BME280;4807;48.024;11.726;2022-11-15T05:15:17;94705.41;;;1.19;84.13
9538;BME280;4807;48.024;11.726;2022-11-15T05:18:45;94710.28;;;1.14;83.52
9538;BME280;4807;48.024;11.726;2022-11-15T05:22:12;94709.63;;;1.12;83.63
9538;BME280;4807;48.024;11.726;2022-11-15T05:25:41;94700.25;;;1.09;84.54
9538;BME280;4807;48.024;11.726;2022-11-15T05:29:10;94693.34;;;1.08;84.61
9538;BME280;4807;48.024;11.726;2022-11-15T05:32:38;94699.13;;;1.12;83.34
9538;BME280;4807;48.024;11.726;2022-11-15T05:36:09;94699.25;;;0.93;83.68
9538;BME280;4807;48.024;11.726;2022-11-15T05:39:39;94700.69;;;0.87;84.75
9538;BME280;4807;48.024;11.726;2022-11-15T05:43:08;94695.88;;;0.83;84.96
9538;BME280;4807;48.024;11.726;2022-11-15T05:46:37;94690.88;;;0.89;85.17
9538;BME280;4807;48.024;11.726;2022-11-15T05:50:06;94683.53;;;0.93;84.46
9538;BME280;4807;48.024;11.726;2022-11-15T05:53:34;94674.16;;;0.90;84.69
9538;BME280;4807;48.024;11.726;2022-11-15T05:57:02;94666.91;;;0.84;85.44
9538;BME280;4807;48.024;11.726;2022-11-15T06:00:31;94665.66;;;0.88;84.42
9538;BME280;4807;48.024;11.726;2022-11-15T06:03:58;94666.47;;;0.89;85.07
9538;BME280;4807;48.024;11.726;2022-11-15T06:07:26;94674.47;;;0.87;84.91
9538;BME280;4807;48.024;11.726;2022-11-15T06:10:53;94669.75;;;0.91;84.76
9538;BME280;4807;48.024;11.726;2022-11-15T06:14:21;94686.16;;;1.10;83.18
9538;BME280;4807;48.024;11.726;2022-11-15T06:17:49;94680.84;;;1.02;84.27
9538;BME280;4807;48.024;11.726;2022-11-15T06:21:16;94671.25;;;1.11;83.45
9538;BME280;4807;48.024;11.726;2022-11-15T06:24:44;94658.97;;;0.94;83.58
9538;BME280;4807;48.024;11.726;2022-11-15T06:28:11;94658.06;;;0.85;84.28
9538;BME280;4807;48.024;11.726;2022-11-15T06:31:38;94659.94;;;0.93;84.31
9538;BME280;4807;48.024;11.726;2022-11-15T06:35:07;94668.41;;;0.87;85.28
9538;BME280;4807;48.024;11.726;2022-11-15T06:38:35;94658.00;;;1.12;83.44
9538;BME280;4807;48.024;11.726;2022-11-15T06:42:02;94667.66;;;1.12;84.04
9538;BME280;4807;48.024;11.726;2022-11-15T06:45:29;94659.66;;;1.13;83.68
9538;BME280;4807;48.024;11.726;2022-11-15T06:48:56;94668.09;;;1.07;83.96
9538;BME280;4807;48.024;11.726;2022-11-15T06:52:25;94663.53;;;1.09;84.08
9538;BME280;4807;48.024;11.726;2022-11-15T06:55:53;94661.34;;;1.23;84.45
9538;BME280;4807;48.024;11.726;2022-11-15T06:59:20;94663.13;;;1.40;84.02
9538;BME280;4807;48.024;11.726;2022-11-15T07:02:48;94666.19;;;1.53;83.31
9538;BME280;4807;48.024;11.726;2022-11-15T07:06:15;94667.53;;;1.57;83.77
9538;BME280;4807;48.024;11.726;2022-11-15T07:09:44;94662.34;;;1.65;83.64
9538;BME280;4807;48.024;11.726;2022-11-15T07:13:13;94667.25;;;1.86;82.12
9538;BME280;4807;48.024;11.726;2022-11-15T07:16:40;94664.81;;;1.92;83.15
9538;BME280;4807;48.024;11.726;2022-11-15T07:20:08;94669.81;;;2.12;82.08
9538;BME280;4807;48.024;11.726;2022-11-15T07:23:37;94670.19;;;2.17;82.03
9538;BME280;4807;48.024;11.726;2022-11-15T07:27:06;94659.78;;;2.33;82.26
9538;BME280;4807;48.024;11.726;2022-11-15T07:30:33;94660.53;;;2.59;82.07
9538;BME280;4807;48.024;11.726;2022-11-15T07:34:03;94666.06;;;2.98;80.59
9538;BME280;4807;48.024;11.726;2022-11-15T07:37:31;94668.88;;;3.13;80.26
9538;BME280;4807;48.024;11.726;2022-11-15T07:40:59;94671.00;;;3.18;77.85
9538;BME280;4807;48.024;11.726;2022-11-15T07:44:28;94672.13;;;2.99;79.38
9538;BME280;4807;48.024;11.726;2022-11-15T07:47:55;94668.72;;;3.23;81.14
9538;BME280;4807;48.024;11.726;2022-11-15T07:51:23;94666.94;;;3.48;79.95
9538;BME280;4807;48.024;11.726;2022-11-15T07:54:50;94668.88;;;3.86;79.37
9538;BME280;4807;48.024;11.726;2022-11-15T07:58:17;94672.13;;;4.12;79.86
9538;BME280;4807;48.024;11.726;2022-11-15T08:01:46;94669.75;;;4.34;76.27
9538;BME280;4807;48.024;11.726;2022-11-15T08:05:14;94664.44;;;4.42;75.28
9538;BME280;4807;48.024;11.726;2022-11-15T08:08:41;94652.69;;;4.60;77.44
9538;BME280;4807;48.024;11.726;2022-11-15T08:12:08;94642.63;;;4.87;77.07
9538;BME280;4807;48.024;11.726;2022-11-15T08:15:36;94634.78;;;5.10;74.97
9538;BME280;4807;48.024;11.726;2022-11-15T08:19:05;94635.28;;;5.28;76.22
9538;BME280;4807;48.024;11.726;2022-11-15T08:22:33;94633.09;;;5.54;74.13
9538;BME280;4807;48.024;11.726;2022-11-15T08:26:01;94629.59;;;5.76;73.63
9538;BME280;4807;48.024;11.726;2022-11-15T08:29:29;94624.84;;;5.95;73.39
9538;BME280;4807;48.024;11.726;2022-11-15T08:32:58;94605.91;;;6.21;72.37
9538;BME280;4807;48.024;11.726;2022-11-15T08:36:26;94584.28;;;6.46;71.41
9538;BME280;4807;48.024;11.726;2022-11-15T08:40:07;94574.50;;;6.62;71.91
9538;BME280;4807;48.024;11.726;2022-11-15T08:43:35;94568.09;;;6.71;71.28
9538;BME280;4807;48.024;11.726;2022-11-15T08:47:02;94577.75;;;6.78;71.43
9538;BME280;4807;48.024;11.726;2022-11-15T08:50:30;94579.88;;;6.89;71.71
9538;BME280;4807;48.024;11.726;2022-11-15T08:53:59;94574.75;;;7.03;70.86
9538;BME280;4807;48.024;11.726;2022-11-15T08:57:28;94574.31;;;7.20;69.50
9538;BME280;4807;48.024;11.726;2022-11-15T09:00:56;94575.16;;;7.21;69.69
9538;BME280;4807;48.024;11.726;2022-11-15T09:04:23;94572.91;;;7.24;70.37
9538;BME280;4807;48.024;11.726;2022-11-15T09:07:53;94571.00;;;7.40;69.90
9538;BME280;4807;48.024;11.726;2022-11-15T09:11:22;94573.88;;;7.66;67.68
9538;BME280;4807;48.024;11.726;2022-11-15T09:14:49;94577.19;;;7.68;66.48
9538;BME280;4807;48.024;11.726;2022-11-15T09:18:16;94580.47;;;7.70;66.57
9538;BME280;4807;48.024;11.726;2022-11-15T09:21:47;94586.50;;;7.64;67.95
9538;BME280;4807;48.024;11.726;2022-11-15T09:25:14;94576.41;;;7.74;67.02
9538;BME280;4807;48.024;11.726;2022-11-15T09:28:42;94579.28;;;7.79;67.32
9538;BME280;4807;48.024;11.726;2022-11-15T09:32:10;94576.34;;;7.95;66.54
9538;BME280;4807;48.024;11.726;2022-11-15T09:35:37;94576.19;;;8.03;67.00
9538;BME280;4807;48.024;11.726;2022-11-15T09:39:05;94562.75;;;8.33;64.29
9538;BME280;4807;48.024;11.726;2022-11-15T09:42:52;94556.75;;;8.59;64.18
9538;BME280;4807;48.024;11.726;2022-11-15T09:46:34;94551.72;;;8.84;63.19
9538;BME280;4807;48.024;11.726;2022-11-15T09:50:09;94547.25;;;8.91;64.15
9538;BME280;4807;48.024;11.726;2022-11-15T09:53:32;94537.91;;;9.14;62.48
9538;BME280;4807;48.024;11.726;2022-11-15T09:57:11;94528.72;;;9.30;61.43
9538;BME280;4807;48.024;11.726;2022-11-15T10:00:29;94527.72;;;9.38;62.13
9538;BME280;4807;48.024;11.726;2022-11-15T10:03:57;94518.50;;;9.53;60.38
9538;BME280;4807;48.024;11.726;2022-11-15T10:07:15;94507.47;;;9.63;60.22
9538;BME280;4807;48.024;11.726;2022-11-15T10:10:35;94508.28;;;9.77;60.74
9538;BME280;4807;48.024;11.726;2022-11-15T10:13:47;94502.56;;;9.80;60.66
9538;BME280;4807;48.024;11.726;2022-11-15T10:17:40;94500.06;;;9.85;58.94
9538;BME280;4807;48.024;11.726;2022-11-15T10:20:59;94499.88;;;9.86;58.96
9538;BME280;4807;48.024;11.726;2022-11-15T10:24:12;94492.69;;;9.93;59.13
9538;BME280;4807;48.024;11.726;2022-11-15T10:27:23;94488.38;;;9.99;59.45
9538;BME280;4807;48.024;11.726;2022-11-15T10:30:35;94480.78;;;10.09;59.09
9538;BME280;4807;48.024;11.726;2022-11-15T10:33:44;94471.97;;;10.15;59.06
9538;BME280;4807;48.024;11.726;2022-11-15T10:36:59;94459.28;;;10.24;58.61
9538;BME280;4807;48.024;11.726;2022-11-15T10:40:19;94463.75;;;10.37;58.00
9538;BME280;4807;48.024;11.726;2022-11-15T10:43:27;94458.78;;;10.53;55.55
9538;BME280;4807;48.024;11.726;2022-11-15T10:46:38;94453.78;;;10.63;56.48
9538;BME280;4807;48.024;11.726;2022-11-15T10:50:06;94449.03;;;10.72;55.30
9538;BME280;4807;48.024;11.726;2022-11-15T10:53:23;94438.88;;;10.87;53.85
9538;BME280;4807;48.024;11.726;2022-11-15T10:56:32;94445.47;;;10.85;54.28
9538;BME280;4807;48.024;11.726;2022-11-15T10:59:45;94438.94;;;10.81;55.05
9538;BME280;4807;48.024;11.726;2022-11-15T11:03:01;94431.09;;;10.92;54.51
9538;BME280;4807;48.024;11.726;2022-11-15T11:06:13;94423.72;;;10.94;54.38
9538;BME280;4807;48.024;11.726;2022-11-15T11:09:31;94417.94;;;10.97;55.10
9538;BME280;4807;48.024;11.726;2022-11-15T11:12:40;94412.19;;;11.00;56.24
9538;BME280;4807;48.024;11.726;2022-11-15T11:15:54;94409.25;;;11.08;55.23
9538;BME280;4807;48.024;11.726;2022-11-15T11:19:21;94407.06;;;11.24;54.16
9538;BME280;4807;48.024;11.726;2022-11-15T11:22:52;94388.63;;;11.22;54.33
9538;BME280;4807;48.024;11.726;2022-11-15T11:26:31;94392.22;;;11.34;53.69
9538;BME280;4807;48.024;11.726;2022-11-15T11:30:01;94393.34;;;11.45;53.42
9538;BME280;4807;48.024;11.726;2022-11-15T11:33:17;94387.19;;;11.44;53.16
9538;BME280;4807;48.024;11.726;2022-11-15T11:36:40;94383.13;;;11.42;53.57
9538;BME280;4807;48.024;11.726;2022-11-15T11:40:02;94390.03;;;11.50;52.00
9538;BME280;4807;48.024;11.726;2022-11-15T11:43:32;94388.19;;;11.50;51.60
9538;BME280;4807;48.024;11.726;2022-11-15T11:46:54;94379.38;;;11.50;51.50
9538;BME280;4807;48.024;11.726;2022-11-15T11:50:14;94360.63;;;11.56;50.92
9538;BME280;4807;48.024;11.726;2022-11-15T11:53:30;94354.41;;;11.62;52.54
9538;BME280;4807;48.024;11.726;2022-11-15T11:56:43;94355.91;;;11.58;52.84
9538;BME280;4807;48.024;11.726;2022-11-15T11:59:58;94345.25;;;11.58;54.10
9538;BME280;4807;48.024;11.726;2022-11-15T12:03:26;94352.81;;;11.79;53.20
9538;BME280;4807;48.024;11.726;2022-11-15T12:06:42;94349.56;;;11.77;52.89
9538;BME280;4807;48.024;11.726;2022-11-15T12:09:59;94337.84;;;11.78;50.51
9538;BME280;4807;48.024;11.726;2022-11-15T12:13:16;94344.38;;;11.82;52.75
9538;BME280;4807;48.024;11.726;2022-11-15T12:16:28;94339.28;;;11.81;51.48
9538;BME280;4807;48.024;11.726;2022-11-15T12:19:38;94336.00;;;11.79;51.84
9538;BME280;4807;48.024;11.726;2022-11-15T12:22:54;94335.78;;;11.80;51.57
9538;BME280;4807;48.024;11.726;2022-11-15T12:26:08;94331.06;;;11.82;51.19
9538;BME280;4807;48.024;11.726;2022-11-15T12:29:26;94315.06;;;11.82;52.00
9538;BME280;4807;48.024;11.726;2022-11-15T12:32:39;94317.63;;;11.89;51.94
9538;BME280;4807;48.024;11.726;2022-11-15T12:36:01;94310.25;;;12.03;54.52
9538;BME280;4807;48.024;11.726;2022-11-15T12:39:11;94313.75;;;12.03;51.48
9538;BME280;4807;48.024;11.726;2022-11-15T12:42:40;94315.06;;;12.12;50.49
9538;BME280;4807;48.024;11.726;2022-11-15T12:45:49;94315.38;;;12.04;49.74
9538;BME280;4807;48.024;11.726;2022-11-15T12:49:01;94314.25;;;12.12;50.64
9538;BME280;4807;48.024;11.726;2022-11-15T12:52:10;94315.16;;;12.06;50.18
9538;BME280;4807;48.024;11.726;2022-11-15T12:55:32;94315.97;;;12.06;49.34
9538;BME280;4807;48.024;11.726;2022-11-15T12:58:44;94304.69;;;12.22;48.52
9538;BME280;4807;48.024;11.726;2022-11-15T13:01:59;94302.94;;;12.28;48.18
9538;BME280;4807;48.024;11.726;2022-11-15T13:06:07;94304.13;;;12.32;48.84
9538;BME280;4807;48.024;11.726;2022-11-15T13:09:53;94295.22;;;12.38;49.19
9538;BME280;4807;48.024;11.726;2022-11-15T13:13:06;94290.38;;;12.47;48.41
9538;BME280;4807;48.024;11.726;2022-11-15T13:16:20;94288.34;;;12.84;48.49
9538;BME280;4807;48.024;11.726;2022-11-15T13:19:29;94289.16;;;12.96;47.77
9538;BME280;4807;48.024;11.726;2022-11-15T13:22:47;94293.69;;;12.95;48.68
9538;BME280;4807;48.024;11.726;2022-11-15T13:26:12;94304.09;;;12.74;49.03
9538;BME280;4807;48.024;11.726;2022-11-15T13:29:23;94293.53;;;12.55;49.78
9538;BME280;4807;48.024;11.726;2022-11-15T13:32:31;94289.88;;;12.50;50.21
9538;BME280;4807;48.024;11.726;2022-11-15T13:35:42;94281.28;;;12.36;51.27
9538;BME280;4807;48.024;11.726;2022-11-15T13:39:03;94286.25;;;12.33;51.50
9538;BME280;4807;48.024;11.726;2022-11-15T13:42:15;94278.94;;;12.28;51.77
9538;BME280;4807;48.024;11.726;2022-11-15T13:45:25;94284.13;;;12.23;52.54
9538;BME280;4807;48.024;11.726;2022-11-15T13:48:34;94280.50;;;12.17;53.45
9538;BME280;4807;48.024;11.726;2022-11-15T13:51:47;94271.84;;;12.22;53.04
9538;BME280;4807;48.024;11.726;2022-11-15T13:55:02;94277.03;;;12.17;53.02
9538;BME280;4807;48.024;11.726;2022-11-15T13:58:13;94275.16;;;12.17;53.23
9538;BME280;4807;48.024;11.726;2022-11-15T14:01:31;94262.06;;;12.16;52.62
9538;BME280;4807;48.024;11.726;2022-11-15T14:04:48;94259.34;;;12.04;54.09
9538;BME280;4807;48.024;11.726;2022-11-15T14:08:00;94260.25;;;11.98;54.92
9538;BME280;4807;48.024;11.726;2022-11-15T14:11:16;94255.47;;;11.89;55.92
9538;BME280;4807;48.024;11.726;2022-11-15T14:14:26;94269.53;;;11.77;56.05
9538;BME280;4807;48.024;11.726;2022-11-15T14:17:37;94269.31;;;11.61;56.24
9538;BME280;4807;48.024;11.726;2022-11-15T14:21:07;94270.28;;;11.48;57.03
9538;BME280;4807;48.024;11.726;2022-11-15T14:24:17;94267.72;;;11.41;57.61
9538;BME280;4807;48.024;11.726;2022-11-15T14:27:28;94276.22;;;11.50;57.59
9538;BME280;4807;48.024;11.726;2022-11-15T14:30:38;94273.09;;;11.53;57.99
9538;BME280;4807;48.024;11.726;2022-11-15T14:33:47;94283.19;;;11.33;58.08
9538;BME280;4807;48.024;11.726;2022-11-15T14:36:56;94272.06;;;11.18;58.77
9538;BME280;4807;48.024;11.726;2022-11-15T14:40:06;94267.78;;;11.17;59.65
9538;BME280;4807;48.024;11.726;2022-11-15T14:43:17;94278.44;;;11.17;59.08
9538;BME280;4807;48.024;11.726;2022-11-15T14:46:26;94279.44;;;10.97;60.47
9538;BME280;4807;48.024;11.726;2022-11-15T14:49:34;94278.94;;;10.82;61.01
9538;BME280;4807;48.024;11.726;2022-11-15T14:52:43;94278.19;;;11.00;59.46
9538;BME280;4807;48.024;11.726;2022-11-15T14:55:51;94276.84;;;10.66;61.01
9538;BME280;4807;48.024;11.726;2022-11-15T14:59:01;94276.16;;;10.52;61.93
9538;BME280;4807;48.024;11.726;2022-11-15T15:02:16;94276.63;;;10.43;61.90
9538;BME280;4807;48.024;11.726;2022-11-15T15:05:30;94277.97;;;10.27;63.18
9538;BME280;4807;48.024;11.726;2022-11-15T15:08:40;94267.53;;;10.25;63.80
9538;BME280;4807;48.024;11.726;2022-11-15T15:11:48;94270.97;;;9.94;64.47
9538;BME280;4807;48.024;11.726;2022-11-15T15:14:58;94273.34;;;9.71;65.22
9538;BME280;4807;48.024;11.726;2022-11-15T15:18:06;94274.66;;;9.55;65.46
9538;BME280;4807;48.024;11.726;2022-11-15T15:21:21;94266.94;;;9.34;66.71
9538;BME280;4807;48.024;11.726;2022-11-15T15:24:30;94275.16;;;9.19;67.28
9538;BME280;4807;48.024;11.726;2022-11-15T15:27:38;94270.69;;;9.00;67.94
9538;BME280;4807;48.024;11.726;2022-11-15T15:30:48;94271.97;;;8.85;69.03
9538;BME280;4807;48.024;11.726;2022-11-15T15:33:57;94274.03;;;8.69;69.85
9538;BME280;4807;48.024;11.726;2022-11-15T15:37:22;94273.22;;;8.56;69.74
9538;BME280;4807;48.024;11.726;2022-11-15T15:40:33;94255.25;;;8.38;70.79
9538;BME280;4807;48.024;11.726;2022-11-15T15:43:42;94264.00;;;8.25;71.68
9538;BME280;4807;48.024;11.726;2022-11-15T15:46:52;94276.50;;;8.31;72.76
9538;BME280;4807;48.024;11.726;2022-11-15T15:50:00;94273.16;;;8.03;73.17
9538;BME280;4807;48.024;11.726;2022-11-15T15:53:11;94270.47;;;7.83;73.27
9538;BME280;4807;48.024;11.726;2022-11-15T15:56:19;94264.94;;;7.72;74.34
9538;BME280;4807;48.024;11.726;2022-11-15T15:59:27;94267.75;;;7.57;75.16
9538;BME280;4807;48.024;11.726;2022-11-15T16:02:37;94271.56;;;7.48;75.51
9538;BME280;4807;48.024;11.726;2022-11-15T16:05:46;94270.50;;;7.29;75.27
9538;BME280;4807;48.024;11.726;2022-11-15T16:08:55;94273.69;;;7.11;75.83
9538;BME280;4807;48.024;11.726;2022-11-15T16:12:20;94262.63;;;7.01;76.64
9538;BME280;4807;48.024;11.726;2022-11-15T16:15:31;94259.78;;;7.03;76.86
9538;BME280;4807;48.024;11.726;2022-11-15T16:18:41;94277.00;;;7.26;78.31
9538;BME280;4807;48.024;11.726;2022-11-15T16:21:50;94261.91;;;7.20;77.95
9538;BME280;4807;48.024;11.726;2022-11-15T16:24:58;94262.41;;;6.96;78.86
9538;BME280;4807;48.024;11.726;2022-11-15T16:28:17;94253.63;;;6.89;78.19
9538;BME280;4807;48.024;11.726;2022-11-15T16:31:25;94254.41;;;6.89;77.97
9538;BME280;4807;48.024;11.726;2022-11-15T16:34:35;94252.34;;;6.85;78.73
9538;BME280;4807;48.024;11.726;2022-11-15T16:37:49;94240.31;;;6.82;78.81
9538;BME280;4807;48.024;11.726;2022-11-15T16:40:58;94243.38;;;6.79;78.69
9538;BME280;4807;48.024;11.726;2022-11-15T16:44:07;94246.00;;;6.73;78.90
9538;BME280;4807;48.024;11.726;2022-11-15T16:47:17;94245.78;;;6.74;78.76
9538;BME280;4807;48.024;11.726;2022-11-15T16:50:32;94235.41;;;6.73;78.55
9538;BME280;4807;48.024;11.726;2022-11-15T16:53:41;94239.25;;;6.70;78.49
9538;BME280;4807;48.024;11.726;2022-11-15T16:56:50;94236.00;;;6.75;78.19
9538;BME280;4807;48.024;11.726;2022-11-15T16:59:59;94229.06;;;6.74;78.74
9538;BME280;4807;48.024;11.726;2022-11-15T17:03:07;94240.06;;;6.71;78.63
9538;BME280;4807;48.024;11.726;2022-11-15T17:06:17;94227.03;;;6.69;79.29
9538;BME280;4807;48.024;11.726;2022-11-15T17:09:26;94224.56;;;6.68;79.06
9538;BME280;4807;48.024;11.726;2022-11-15T17:12:35;94224.56;;;6.68;79.01
9538;BME280;4807;48.024;11.726;2022-11-15T17:15:43;94219.28;;;6.68;79.19
9538;BME280;4807;48.024;11.726;2022-11-15T17:18:52;94214.41;;;6.65;79.35
9538;BME280;4807;48.024;11.726;2022-11-15T17:22:01;94211.91;;;6.57;79.54
9538;BME280;4807;48.024;11.726;2022-11-15T17:25:10;94212.69;;;6.57;79.47
9538;BME280;4807;48.024;11.726;2022-11-15T17:28:18;94212.66;;;6.50;79.97
9538;BME280;4807;48.024;11.726;2022-11-15T17:31:27;94208.16;;;6.44;80.07
9538;BME280;4807;48.024;11.726;2022-11-15T17:34:39;94210.16;;;6.42;79.98
9538;BME280;4807;48.024;11.726;2022-11-15T17:37:49;94215.22;;;6.37;80.42
9538;BME280;4807;48.024;11.726;2022-11-15T17:41:02;94207.69;;;6.34;79.84
9538;BME280;4807;48.024;11.726;2022-11-15T17:44:11;94194.72;;;6.39;80.04
9538;BME280;4807;48.024;11.726;2022-11-15T17:47:20;94197.34;;;6.39;80.41
9538;BME280;4807;48.024;11.726;2022-11-15T17:50:30;94191.81;;;6.34;79.77
9538;BME280;4807;48.024;11.726;2022-11-15T17:53:42;94198.03;;;6.48;79.57
9538;BME280;4807;48.024;11.726;2022-11-15T17:56:51;94193.06;;;6.38;79.65
9538;BME280;4807;48.024;11.726;2022-11-15T18:00:00;94185.09;;;6.04;80.90
9538;BME280;4807;48.024;11.726;2022-11-15T18:03:10;94195.94;;;5.88;81.96
9538;BME280;4807;48.024;11.726;2022-11-15T18:06:20;94182.72;;;5.88;81.87
9538;BME280;4807;48.024;11.726;2022-11-15T18:09:31;94184.00;;;5.92;81.64
9538;BME280;4807;48.024;11.726;2022-11-15T18:12:39;94186.53;;;5.85;81.38
9538;BME280;4807;48.024;11.726;2022-11-15T18:15:53;94177.56;;;5.80;81.95
9538;BME280;4807;48.024;11.726;2022-11-15T18:19:03;94172.91;;;5.82;82.16
9538;BME280;4807;48.024;11.726;2022-11-15T18:22:14;94166.22;;;5.86;81.65